sensor_id;sensor_type;location;lat;lon;timestamp;pressure;altitude;pressure_sealevel;temperature;humidity
86078;BME280;76680;59.304;18.294;2024-03-08T00:02:07;102656.97;;;-1.40;61.35
86078;BME280;76680;59.304;18.294;2024-03-08T00:04:34;102664.41;;;-1.43;60.69
86078;BME280;76680;59.304;18.294;2024-03-08T00:07:01;102657.44;;;-1.45;61.23
86078;BME280;76680;59.304;18.294;2024-03-08T00:09:28;102655.59;;;-1.48;61.64
86078;BME280;76680;59.304;18.294;2024-03-08T00:11:56;102656.28;;;-1.51;61.57
86078;BME280;76680;59.304;18.294;2024-03-08T00:14:24;102656.09;;;-1.54;61.70
86078;BME280;76680;59.304;18.294;2024-03-08T00:16:51;102652.56;;;-1.56;61.21
86078;BME280;76680;59.304;18.294;2024-03-08T00:19:19;102653.25;;;-1.58;61.45
86078;BME280;76680;59.304;18.294;2024-03-08T00:21:46;102648.84;;;-1.61;61.41
86078;BME280;76680;59.304;18.294;2024-03-08T00:24:13;102648.66;;;-1.64;61.62
86078;BME280;76680;59.304;18.294;2024-03-08T00:26:40;102645.13;;;-1.66;61.93
86078;BME280;76680;59.304;18.294;2024-03-08T00:29:07;102644.06;;;-1.70;61.66
86078;BME280;76680;59.304;18.294;2024-03-08T00:31:36;102647.38;;;-1.71;62.15
86078;BME280;76680;59.304;18.294;2024-03-08T00:34:02;102638.78;;;-1.73;61.89
86078;BME280;76680;59.304;18.294;2024-03-08T00:36:29;102643.66;;;-1.76;62.18
86078;BME280;76680;59.304;18.294;2024-03-08T00:38:56;102635.91;;;-1.77;62.21
86078;BME280;76680;59.304;18.294;2024-03-08T00:41:25;102639.94;;;-1.81;62.13
86078;BME280;76680;59.304;18.294;2024-03-08T00:43:52;102629.56;;;-1.84;62.10
86078;BME280;76680;59.304;18.294;2024-03-08T00:46:19;102635.34;;;-1.87;62.49
86078;BME280;76680;59.304;18.294;2024-03-08T00:48:47;102626.72;;;-1.89;62.53
86078;BME280;76680;59.304;18.294;2024-03-08T00:51:16;102633.50;;;-1.89;62.16
86078;BME280;76680;59.304;18.294;2024-03-08T00:53:43;102631.63;;;-1.92;62.44
86078;BME280;76680;59.304;18.294;2024-03-08T00:56:10;102633.09;;;-1.95;62.72
86078;BME280;76680;59.304;18.294;2024-03-08T00:58:37;102627.91;;;-1.97;62.77
86078;BME280;76680;59.304;18.294;2024-03-08T01:01:04;102636.22;;;-2.00;62.51
86078;BME280;76680;59.304;18.294;2024-03-08T01:03:31;102631.91;;;-2.01;62.45
86078;BME280;76680;59.304;18.294;2024-03-08T01:06:01;102630.84;;;-2.04;62.97
86078;BME280;76680;59.304;18.294;2024-03-08T01:08:28;102628.97;;;-2.07;63.10
86078;BME280;76680;59.304;18.294;2024-03-08T01:10:54;102626.34;;;-2.08;62.75
86078;BME280;76680;59.304;18.294;2024-03-08T01:13:21;102625.34;;;-2.10;62.79
86078;BME280;76680;59.304;18.294;2024-03-08T01:15:48;102627.78;;;-2.12;63.11
86078;BME280;76680;59.304;18.294;2024-03-08T01:18:15;102630.25;;;-2.13;63.02
86078;BME280;76680;59.304;18.294;2024-03-08T01:20:42;102622.50;;;-2.15;63.12
86078;BME280;76680;59.304;18.294;2024-03-08T01:23:10;102619.75;;;-2.18;62.96
86078;BME280;76680;59.304;18.294;2024-03-08T01:25:37;102614.66;;;-2.18;62.70
86078;BME280;76680;59.304;18.294;2024-03-08T01:28:05;102618.78;;;-2.20;63.29
86078;BME280;76680;59.304;18.294;2024-03-08T01:30:32;102618.56;;;-2.23;63.68
86078;BME280;76680;59.304;18.294;2024-03-08T01:33:00;102621.94;;;-2.24;63.56
86078;BME280;76680;59.304;18.294;2024-03-08T01:35:28;102625.16;;;-2.27;63.59
86078;BME280;76680;59.304;18.294;2024-03-08T01:37:54;102615.75;;;-2.28;63.89
86078;BME280;76680;59.304;18.294;2024-03-08T01:40:23;102618.19;;;-2.29;63.57
86078;BME280;76680;59.304;18.294;2024-03-08T01:42:50;102615.53;;;-2.31;63.61
86078;BME280;76680;59.304;18.294;2024-03-08T01:45:17;102614.66;;;-2.32;63.43
86078;BME280;76680;59.304;18.294;2024-03-08T01:47:44;102608.56;;;-2.34;63.49
86078;BME280;76680;59.304;18.294;2024-03-08T01:50:14;102607.59;;;-2.36;63.78
86078;BME280;76680;59.304;18.294;2024-03-08T01:52:42;102604.94;;;-2.37;63.63
86078;BME280;76680;59.304;18.294;2024-03-08T01:55:09;102605.63;;;-2.40;63.89
86078;BME280;76680;59.304;18.294;2024-03-08T01:57:38;102598.78;;;-2.41;64.16
86078;BME280;76680;59.304;18.294;2024-03-08T02:00:06;102601.34;;;-2.41;64.30
86078;BME280;76680;59.304;18.294;2024-03-08T02:02:37;102598.56;;;-2.44;64.29
86078;BME280;76680;59.304;18.294;2024-03-08T02:05:05;102599.34;;;-2.45;64.22
86078;BME280;76680;59.304;18.294;2024-03-08T02:07:32;102600.16;;;-2.46;64.15
86078;BME280;76680;59.304;18.294;2024-03-08T02:09:59;102596.63;;;-2.48;64.27
86078;BME280;76680;59.304;18.294;2024-03-08T02:12:26;102595.75;;;-2.49;64.38
86078;BME280;76680;59.304;18.294;2024-03-08T02:14:55;102595.63;;;-2.50;64.37
86078;BME280;76680;59.304;18.294;2024-03-08T02:17:22;102587.03;;;-2.52;64.50
86078;BME280;76680;59.304;18.294;2024-03-08T02:19:49;102596.31;;;-2.53;64.61
86078;BME280;76680;59.304;18.294;2024-03-08T02:22:17;102586.94;;;-2.54;64.59
86078;BME280;76680;59.304;18.294;2024-03-08T02:24:44;102585.06;;;-2.56;64.53
86078;BME280;76680;59.304;18.294;2024-03-08T02:27:11;102586.72;;;-2.57;64.34
86078;BME280;76680;59.304;18.294;2024-03-08T02:29:39;102586.72;;;-2.57;64.77
86078;BME280;76680;59.304;18.294;2024-03-08T02:32:06;102583.19;;;-2.59;64.65
86078;BME280;76680;59.304;18.294;2024-03-08T02:34:34;102582.28;;;-2.59;64.62
86078;BME280;76680;59.304;18.294;2024-03-08T02:37:01;102586.44;;;-2.61;64.87
86078;BME280;76680;59.304;18.294;2024-03-08T02:39:30;102581.22;;;-2.63;64.44
86078;BME280;76680;59.304;18.294;2024-03-08T02:41:57;102585.44;;;-2.63;64.86
86078;BME280;76680;59.304;18.294;2024-03-08T02:44:24;102584.56;;;-2.64;64.83
86078;BME280;76680;59.304;18.294;2024-03-08T02:46:51;102582.69;;;-2.67;64.52
86078;BME280;76680;59.304;18.294;2024-03-08T02:49:20;102580.03;;;-2.68;64.90
86078;BME280;76680;59.304;18.294;2024-03-08T02:51:47;102577.38;;;-2.70;64.81
86078;BME280;76680;59.304;18.294;2024-03-08T02:54:14;102581.50;;;-2.72;64.92
86078;BME280;76680;59.304;18.294;2024-03-08T02:56:44;102574.66;;;-2.73;65.05
86078;BME280;76680;59.304;18.294;2024-03-08T02:59:12;102581.28;;;-2.75;64.93
86078;BME280;76680;59.304;18.294;2024-03-08T03:01:40;102579.53;;;-2.76;64.91
86078;BME280;76680;59.304;18.294;2024-03-08T03:04:08;102578.56;;;-2.78;65.08
86078;BME280;76680;59.304;18.294;2024-03-08T03:06:35;102581.88;;;-2.79;65.35
86078;BME280;76680;59.304;18.294;2024-03-08T03:09:02;102577.56;;;-2.80;65.24
86078;BME280;76680;59.304;18.294;2024-03-08T03:11:31;102576.56;;;-2.82;65.32
86078;BME280;76680;59.304;18.294;2024-03-08T03:14:00;102570.59;;;-2.83;65.41
86078;BME280;76680;59.304;18.294;2024-03-08T03:16:27;102574.69;;;-2.85;65.40
86078;BME280;76680;59.304;18.294;2024-03-08T03:18:54;102576.28;;;-2.87;65.64
86078;BME280;76680;59.304;18.294;2024-03-08T03:21:22;102577.06;;;-2.88;66.06
86078;BME280;76680;59.304;18.294;2024-03-08T03:23:49;102577.81;;;-2.89;66.09
86078;BME280;76680;59.304;18.294;2024-03-08T03:26:16;102570.88;;;-2.91;66.11
86078;BME280;76680;59.304;18.294;2024-03-08T03:28:44;102569.22;;;-2.91;66.28
86078;BME280;76680;59.304;18.294;2024-03-08T03:31:14;102576.72;;;-2.92;66.92
86078;BME280;76680;59.304;18.294;2024-03-08T03:33:40;102575.00;;;-2.93;66.93
86078;BME280;76680;59.304;18.294;2024-03-08T03:36:07;102569.00;;;-2.94;66.91
86078;BME280;76680;59.304;18.294;2024-03-08T03:38:35;102577.41;;;-2.95;66.93
86078;BME280;76680;59.304;18.294;2024-03-08T03:41:03;102571.47;;;-2.95;67.01
86078;BME280;76680;59.304;18.294;2024-03-08T03:43:35;102566.38;;;-2.95;67.08
86078;BME280;76680;59.304;18.294;2024-03-08T03:46:05;102566.28;;;-2.97;67.20
86078;BME280;76680;59.304;18.294;2024-03-08T03:48:34;102566.28;;;-2.97;67.41
86078;BME280;76680;59.304;18.294;2024-03-08T03:51:01;102565.38;;;-2.98;67.36
86078;BME280;76680;59.304;18.294;2024-03-08T03:53:29;102562.81;;;-2.98;67.30
86078;BME280;76680;59.304;18.294;2024-03-08T03:55:56;102562.81;;;-2.98;67.27
86078;BME280;76680;59.304;18.294;2024-03-08T03:58:25;102566.19;;;-2.99;67.42
86078;BME280;76680;59.304;18.294;2024-03-08T04:00:52;102559.31;;;-3.00;67.52
86078;BME280;76680;59.304;18.294;2024-03-08T04:03:19;102564.41;;;-3.00;67.52
86078;BME280;76680;59.304;18.294;2024-03-08T04:05:48;102563.50;;;-3.00;67.87
86078;BME280;76680;59.304;18.294;2024-03-08T04:08:16;102567.72;;;-3.01;67.93
86078;BME280;76680;59.304;18.294;2024-03-08T04:10:43;102561.84;;;-3.00;67.67
86078;BME280;76680;59.304;18.294;2024-03-08T04:13:10;102566.06;;;-3.00;67.65
86078;BME280;76680;59.304;18.294;2024-03-08T04:15:37;102566.84;;;-3.01;67.35
86078;BME280;76680;59.304;18.294;2024-03-08T04:18:04;102560.00;;;-3.02;67.93
86078;BME280;76680;59.304;18.294;2024-03-08T04:20:31;102560.78;;;-3.03;67.65
86078;BME280;76680;59.304;18.294;2024-03-08T04:23:00;102561.63;;;-3.03;67.69
86078;BME280;76680;59.304;18.294;2024-03-08T04:25:26;102560.78;;;-3.03;67.73
86078;BME280;76680;59.304;18.294;2024-03-08T04:27:53;102554.81;;;-3.04;67.90
86078;BME280;76680;59.304;18.294;2024-03-08T04:30:20;102553.03;;;-3.05;68.02
86078;BME280;76680;59.304;18.294;2024-03-08T04:32:48;102543.63;;;-3.06;68.00
86078;BME280;76680;59.304;18.294;2024-03-08T04:35:15;102553.81;;;-3.06;68.18
86078;BME280;76680;59.304;18.294;2024-03-08T04:37:41;102550.50;;;-3.05;68.10
86078;BME280;76680;59.304;18.294;2024-03-08T04:40:10;102548.72;;;-3.06;68.05
86078;BME280;76680;59.304;18.294;2024-03-08T04:42:39;102544.41;;;-3.07;68.07
86078;BME280;76680;59.304;18.294;2024-03-08T04:45:08;102546.09;;;-3.07;68.18
86078;BME280;76680;59.304;18.294;2024-03-08T04:47:36;102541.00;;;-3.07;68.12
86078;BME280;76680;59.304;18.294;2024-03-08T04:50:04;102551.16;;;-3.07;68.40
86078;BME280;76680;59.304;18.294;2024-03-08T04:52:31;102540.91;;;-3.09;68.31
86078;BME280;76680;59.304;18.294;2024-03-08T04:54:58;102541.69;;;-3.10;68.39
86078;BME280;76680;59.304;18.294;2024-03-08T04:57:26;102536.59;;;-3.10;68.17
86078;BME280;76680;59.304;18.294;2024-03-08T04:59:53;102541.69;;;-3.10;68.36
86078;BME280;76680;59.304;18.294;2024-03-08T05:02:20;102536.50;;;-3.11;68.26
86078;BME280;76680;59.304;18.294;2024-03-08T05:04:48;102533.03;;;-3.12;68.45
86078;BME280;76680;59.304;18.294;2024-03-08T05:07:15;102536.38;;;-3.13;68.62
86078;BME280;76680;59.304;18.294;2024-03-08T05:09:42;102538.91;;;-3.13;68.41
86078;BME280;76680;59.304;18.294;2024-03-08T05:12:17;102536.28;;;-3.15;68.38
86078;BME280;76680;59.304;18.294;2024-03-08T05:14:45;102537.94;;;-3.15;68.22
86078;BME280;76680;59.304;18.294;2024-03-08T05:17:15;102535.41;;;-3.15;68.68
86078;BME280;76680;59.304;18.294;2024-03-08T05:19:42;102534.50;;;-3.16;68.77
86078;BME280;76680;59.304;18.294;2024-03-08T05:22:09;102534.41;;;-3.17;68.84
86078;BME280;76680;59.304;18.294;2024-03-08T05:24:36;102536.19;;;-3.16;68.95
86078;BME280;76680;59.304;18.294;2024-03-08T05:27:03;102534.41;;;-3.17;69.13
86078;BME280;76680;59.304;18.294;2024-03-08T05:29:30;102533.53;;;-3.18;68.83
86078;BME280;76680;59.304;18.294;2024-03-08T05:32:00;102528.44;;;-3.18;69.01
86078;BME280;76680;59.304;18.294;2024-03-08T05:34:28;102532.63;;;-3.18;68.95
86078;BME280;76680;59.304;18.294;2024-03-08T05:36:55;102530.91;;;-3.19;68.95
86078;BME280;76680;59.304;18.294;2024-03-08T05:39:26;102532.53;;;-3.20;68.72
86078;BME280;76680;59.304;18.294;2024-03-08T05:41:53;102529.13;;;-3.20;69.03
86078;BME280;76680;59.304;18.294;2024-03-08T05:44:20;102530.91;;;-3.19;69.13
86078;BME280;76680;59.304;18.294;2024-03-08T05:46:47;102529.13;;;-3.20;68.83
86078;BME280;76680;59.304;18.294;2024-03-08T05:49:15;102534.22;;;-3.20;68.94
86078;BME280;76680;59.304;18.294;2024-03-08T05:51:43;102532.44;;;-3.21;69.29
86078;BME280;76680;59.304;18.294;2024-03-08T05:54:11;102534.97;;;-3.21;69.45
86078;BME280;76680;59.304;18.294;2024-03-08T05:56:39;102534.97;;;-3.21;69.13
86078;BME280;76680;59.304;18.294;2024-03-08T05:59:07;102532.44;;;-3.21;69.46
86078;BME280;76680;59.304;18.294;2024-03-08T06:01:34;102533.31;;;-3.21;69.33
86078;BME280;76680;59.304;18.294;2024-03-08T06:04:03;102537.53;;;-3.21;69.67
86078;BME280;76680;59.304;18.294;2024-03-08T06:06:31;102534.22;;;-3.20;69.01
86078;BME280;76680;59.304;18.294;2024-03-08T06:08:58;102535.06;;;-3.20;69.98
86078;BME280;76680;59.304;18.294;2024-03-08T06:11:25;102534.31;;;-3.19;69.64
86078;BME280;76680;59.304;18.294;2024-03-08T06:13:53;102534.31;;;-3.19;70.01
86078;BME280;76680;59.304;18.294;2024-03-08T06:16:25;102531.94;;;-3.16;70.20
86078;BME280;76680;59.304;18.294;2024-03-08T06:18:55;102536.19;;;-3.16;70.16
86078;BME280;76680;59.304;18.294;2024-03-08T06:21:22;102538.81;;;-3.15;70.16
86078;BME280;76680;59.304;18.294;2024-03-08T06:23:53;102537.16;;;-3.14;70.35
86078;BME280;76680;59.304;18.294;2024-03-08T06:26:22;102536.50;;;-3.11;70.00
86078;BME280;76680;59.304;18.294;2024-03-08T06:28:50;102541.69;;;-3.10;70.38
86078;BME280;76680;59.304;18.294;2024-03-08T06:31:17;102540.00;;;-3.09;70.05
86078;BME280;76680;59.304;18.294;2024-03-08T06:33:45;102541.88;;;-3.07;70.51
86078;BME280;76680;59.304;18.294;2024-03-08T06:36:12;102538.56;;;-3.06;70.56
86078;BME280;76680;59.304;18.294;2024-03-08T06:38:44;102546.28;;;-3.04;70.81
86078;BME280;76680;59.304;18.294;2024-03-08T06:41:13;102542.09;;;-3.04;70.52
86078;BME280;76680;59.304;18.294;2024-03-08T06:43:41;102542.28;;;-3.01;70.69
86078;BME280;76680;59.304;18.294;2024-03-08T06:46:08;102538.97;;;-3.00;70.55
86078;BME280;76680;59.304;18.294;2024-03-08T06:48:38;102532.28;;;-2.98;71.04
86078;BME280;76680;59.304;18.294;2024-03-08T06:51:08;102533.38;;;-2.94;70.66
86078;BME280;76680;59.304;18.294;2024-03-08T06:53:36;102535.25;;;-2.91;70.85
86078;BME280;76680;59.304;18.294;2024-03-08T06:56:04;102538.00;;;-2.88;70.76
86078;BME280;76680;59.304;18.294;2024-03-08T06:58:32;102537.22;;;-2.87;70.87
86078;BME280;76680;59.304;18.294;2024-03-08T07:00:59;102541.75;;;-2.83;71.19
86078;BME280;76680;59.304;18.294;2024-03-08T07:03:29;102537.63;;;-2.81;71.15
86078;BME280;76680;59.304;18.294;2024-03-08T07:05:57;102540.38;;;-2.78;71.18
86078;BME280;76680;59.304;18.294;2024-03-08T07:08:24;102544.00;;;-2.74;71.28
86078;BME280;76680;59.304;18.294;2024-03-08T07:10:52;102546.84;;;-2.70;71.69
86078;BME280;76680;59.304;18.294;2024-03-08T07:13:19;102547.06;;;-2.67;72.09
86078;BME280;76680;59.304;18.294;2024-03-08T07:15:50;102543.16;;;-2.61;71.83
86078;BME280;76680;59.304;18.294;2024-03-08T07:18:17;102545.88;;;-2.58;71.67
86078;BME280;76680;59.304;18.294;2024-03-08T07:20:44;102543.53;;;-2.55;72.04
86078;BME280;76680;59.304;18.294;2024-03-08T07:23:11;102543.75;;;-2.52;72.08
86078;BME280;76680;59.304;18.294;2024-03-08T07:25:58;102542.28;;;-2.49;71.88
86078;BME280;76680;59.304;18.294;2024-03-08T07:28:26;102527.97;;;-2.46;71.97
86078;BME280;76680;59.304;18.294;2024-03-08T07:30:54;102541.88;;;-2.41;72.14
86078;BME280;76680;59.304;18.294;2024-03-08T07:33:33;102540.41;;;-2.38;72.35
86078;BME280;76680;59.304;18.294;2024-03-08T07:36:00;102536.47;;;-2.33;72.34
86078;BME280;76680;59.304;18.294;2024-03-08T07:38:27;102532.66;;;-2.26;72.66
86078;BME280;76680;59.304;18.294;2024-03-08T07:40:55;102533.03;;;-2.20;72.65
86078;BME280;76680;59.304;18.294;2024-03-08T07:43:22;102528.44;;;-2.12;72.90
86078;BME280;76680;59.304;18.294;2024-03-08T07:45:49;102537.44;;;-2.04;72.89
86078;BME280;76680;59.304;18.294;2024-03-08T07:48:19;102530.38;;;-1.94;72.30
86078;BME280;76680;59.304;18.294;2024-03-08T07:50:46;102528.22;;;-1.88;72.62
86078;BME280;76680;59.304;18.294;2024-03-08T07:53:15;102527.00;;;-1.80;72.90
86078;BME280;76680;59.304;18.294;2024-03-08T07:55:42;102534.34;;;-1.71;72.71
86078;BME280;76680;59.304;18.294;2024-03-08T07:58:11;102528.91;;;-1.62;72.54
86078;BME280;76680;59.304;18.294;2024-03-08T08:00:39;102527.78;;;-1.53;72.82
86078;BME280;76680;59.304;18.294;2024-03-08T08:03:09;102536.09;;;-1.42;72.67
86078;BME280;76680;59.304;18.294;2024-03-08T08:05:39;102529.06;;;-1.31;72.20
86078;BME280;76680;59.304;18.294;2024-03-08T08:08:07;102527.97;;;-1.21;73.26
86078;BME280;76680;59.304;18.294;2024-03-08T08:10:36;102535.38;;;-1.11;72.33
86078;BME280;76680;59.304;18.294;2024-03-08T08:13:03;102528.34;;;-1.00;72.44
86078;BME280;76680;59.304;18.294;2024-03-08T08:15:32;102527.19;;;-0.90;72.55
86078;BME280;76680;59.304;18.294;2024-03-08T08:17:59;102527.72;;;-0.81;72.58
86078;BME280;76680;59.304;18.294;2024-03-08T08:20:28;102531.59;;;-0.73;71.83
86078;BME280;76680;59.304;18.294;2024-03-08T08:22:57;102520.34;;;-0.61;72.43
86078;BME280;76680;59.304;18.294;2024-03-08T08:25:24;102514.03;;;-0.52;72.05
86078;BME280;76680;59.304;18.294;2024-03-08T08:27:51;102517.22;;;-0.41;72.20
86078;BME280;76680;59.304;18.294;2024-03-08T08:30:19;102519.47;;;-0.30;71.76
86078;BME280;76680;59.304;18.294;2024-03-08T08:32:46;102518.41;;;-0.19;71.56
86078;BME280;76680;59.304;18.294;2024-03-08T08:35:14;102513.00;;;-0.09;71.75
86078;BME280;76680;59.304;18.294;2024-03-08T08:37:41;102505.81;;;0.01;71.49
86078;BME280;76680;59.304;18.294;2024-03-08T08:40:11;102512.38;;;0.12;71.70
86078;BME280;76680;59.304;18.294;2024-03-08T08:42:43;102508.72;;;0.23;71.01
86078;BME280;76680;59.304;18.294;2024-03-08T08:45:11;102511.91;;;0.36;71.78
86078;BME280;76680;59.304;18.294;2024-03-08T08:47:38;102514.16;;;0.46;70.99
86078;BME280;76680;59.304;18.294;2024-03-08T08:50:08;102515.59;;;0.57;70.78
86078;BME280;76680;59.304;18.294;2024-03-08T08:52:37;102504.22;;;0.69;70.00
86078;BME280;76680;59.304;18.294;2024-03-08T08:55:05;102507.34;;;0.79;69.90
86078;BME280;76680;59.304;18.294;2024-03-08T08:57:35;102504.50;;;0.91;69.61
86078;BME280;76680;59.304;18.294;2024-03-08T09:00:03;102504.16;;;1.02;70.08
86078;BME280;76680;59.304;18.294;2024-03-08T09:02:32;102509.00;;;1.13;69.37
86078;BME280;76680;59.304;18.294;2024-03-08T09:04:59;102501.78;;;1.23;69.66
86078;BME280;76680;59.304;18.294;2024-03-08T09:07:27;102503.25;;;1.36;69.18
86078;BME280;76680;59.304;18.294;2024-03-08T09:09:54;102501.94;;;1.44;69.18
86078;BME280;76680;59.304;18.294;2024-03-08T09:12:26;102503.25;;;1.54;68.30
86078;BME280;76680;59.304;18.294;2024-03-08T09:14:55;102495.09;;;1.62;68.47
86078;BME280;76680;59.304;18.294;2024-03-08T09:17:21;102493.00;;;1.72;67.39
86078;BME280;76680;59.304;18.294;2024-03-08T09:19:51;102491.66;;;1.80;67.09
86078;BME280;76680;59.304;18.294;2024-03-08T09:22:18;102490.31;;;1.88;66.63
86078;BME280;76680;59.304;18.294;2024-03-08T09:24:44;102491.63;;;1.98;66.36
86078;BME280;76680;59.304;18.294;2024-03-08T09:27:12;102493.72;;;2.07;66.19
86078;BME280;76680;59.304;18.294;2024-03-08T09:29:40;102494.13;;;2.16;66.26
86078;BME280;76680;59.304;18.294;2024-03-08T09:32:08;102492.06;;;2.27;65.60
86078;BME280;76680;59.304;18.294;2024-03-08T09:34:37;102491.66;;;2.37;65.73
86078;BME280;76680;59.304;18.294;2024-03-08T09:37:04;102484.41;;;2.48;65.96
86078;BME280;76680;59.304;18.294;2024-03-08T09:39:30;102478.88;;;2.58;65.53
86078;BME280;76680;59.304;18.294;2024-03-08T09:41:58;102482.72;;;2.68;64.84
86078;BME280;76680;59.304;18.294;2024-03-08T09:44:26;102482.28;;;2.78;64.50
86078;BME280;76680;59.304;18.294;2024-03-08T09:46:54;102482.66;;;2.88;63.77
86078;BME280;76680;59.304;18.294;2024-03-08T09:49:23;102475.34;;;2.97;63.84
86078;BME280;76680;59.304;18.294;2024-03-08T09:51:50;102474.91;;;3.07;63.89
86078;BME280;76680;59.304;18.294;2024-03-08T09:54:17;102472.72;;;3.17;63.83
86078;BME280;76680;59.304;18.294;2024-03-08T09:56:48;102472.19;;;3.25;62.68
86078;BME280;76680;59.304;18.294;2024-03-08T09:59:17;102475.97;;;3.34;62.01
86078;BME280;76680;59.304;18.294;2024-03-08T10:02:13;102472.94;;;3.44;61.91
86078;BME280;76680;59.304;18.294;2024-03-08T10:04:43;102474.09;;;3.52;61.47
86078;BME280;76680;59.304;18.294;2024-03-08T10:07:11;102472.72;;;3.60;61.04
86078;BME280;76680;59.304;18.294;2024-03-08T10:09:41;102466.09;;;3.67;60.78
86078;BME280;76680;59.304;18.294;2024-03-08T10:12:15;102470.72;;;3.76;59.83
86078;BME280;76680;59.304;18.294;2024-03-08T10:14:42;102471.00;;;3.84;58.75
86078;BME280;76680;59.304;18.294;2024-03-08T10:17:09;102468.72;;;3.91;58.13
86078;BME280;76680;59.304;18.294;2024-03-08T10:19:36;102469.06;;;4.01;57.79
86078;BME280;76680;59.304;18.294;2024-03-08T10:22:05;102468.56;;;4.11;57.13
86078;BME280;76680;59.304;18.294;2024-03-08T10:24:33;102471.59;;;4.23;58.08
86078;BME280;76680;59.304;18.294;2024-03-08T10:27:01;102465.91;;;4.32;57.72
86078;BME280;76680;59.304;18.294;2024-03-08T10:29:31;102478.28;;;4.42;58.48
86078;BME280;76680;59.304;18.294;2024-03-08T10:31:57;102470.88;;;4.52;57.15
86078;BME280;76680;59.304;18.294;2024-03-08T10:34:25;102472.91;;;4.61;57.03
86078;BME280;76680;59.304;18.294;2024-03-08T10:36:52;102480.84;;;4.67;55.74
86078;BME280;76680;59.304;18.294;2024-03-08T10:39:25;102481.88;;;4.72;57.12
86078;BME280;76680;59.304;18.294;2024-03-08T10:41:57;102478.56;;;4.76;56.90
86078;BME280;76680;59.304;18.294;2024-03-08T10:44:40;102475.19;;;4.77;56.12
86078;BME280;76680;59.304;18.294;2024-03-08T10:47:17;102481.19;;;4.78;56.54
86078;BME280;76680;59.304;18.294;2024-03-08T10:49:51;102476.94;;;4.78;55.73
86078;BME280;76680;59.304;18.294;2024-03-08T10:52:18;102482.09;;;4.78;54.68
86078;BME280;76680;59.304;18.294;2024-03-08T10:54:47;102470.88;;;4.78;54.56
86078;BME280;76680;59.304;18.294;2024-03-08T10:57:17;102472.66;;;4.79;54.35
86078;BME280;76680;59.304;18.294;2024-03-08T10:59:46;102473.63;;;4.82;53.86
86078;BME280;76680;59.304;18.294;2024-03-08T11:02:16;102472.84;;;4.85;54.04
86078;BME280;76680;59.304;18.294;2024-03-08T11:04:47;102475.47;;;4.86;54.38
86078;BME280;76680;59.304;18.294;2024-03-08T11:07:15;102473.84;;;4.88;54.80
86078;BME280;76680;59.304;18.294;2024-03-08T11:09:46;102468.78;;;4.91;54.44
86078;BME280;76680;59.304;18.294;2024-03-08T11:12:22;102476.59;;;4.95;54.84
86078;BME280;76680;59.304;18.294;2024-03-08T11:15:12;102468.03;;;4.96;54.57
86078;BME280;76680;59.304;18.294;2024-03-08T11:17:44;102463.84;;;4.98;53.73
86078;BME280;76680;59.304;18.294;2024-03-08T11:20:12;102471.63;;;4.99;54.53
86078;BME280;76680;59.304;18.294;2024-03-08T11:25:37;102467.56;;;5.06;55.75
86078;BME280;76680;59.304;18.294;2024-03-08T11:28:18;102466.00;;;5.11;55.21
86078;BME280;76680;59.304;18.294;2024-03-08T11:30:46;102456.66;;;5.15;54.40
86078;BME280;76680;59.304;18.294;2024-03-08T11:33:15;102463.66;;;5.19;54.00
86078;BME280;76680;59.304;18.294;2024-03-08T11:35:43;102461.25;;;5.23;53.42
86078;BME280;76680;59.304;18.294;2024-03-08T11:38:12;102458.81;;;5.28;52.47
86078;BME280;76680;59.304;18.294;2024-03-08T11:40:41;102463.19;;;5.31;52.56
86078;BME280;76680;59.304;18.294;2024-03-08T11:43:08;102461.56;;;5.34;53.75
86078;BME280;76680;59.304;18.294;2024-03-08T11:45:36;102453.94;;;5.37;53.41
86078;BME280;76680;59.304;18.294;2024-03-08T11:48:04;102460.09;;;5.41;52.79
86078;BME280;76680;59.304;18.294;2024-03-08T11:50:31;102451.50;;;5.42;51.87
86078;BME280;76680;59.304;18.294;2024-03-08T11:53:03;102453.34;;;5.46;52.70
86078;BME280;76680;59.304;18.294;2024-03-08T11:55:30;102451.69;;;5.48;52.19
86078;BME280;76680;59.304;18.294;2024-03-08T11:58:05;102448.38;;;5.52;53.07
86078;BME280;76680;59.304;18.294;2024-03-08T12:00:34;102450.16;;;5.55;52.24
86078;BME280;76680;59.304;18.294;2024-03-08T12:03:07;102457.97;;;5.56;52.61
86078;BME280;76680;59.304;18.294;2024-03-08T12:05:35;102451.94;;;5.57;52.29
86078;BME280;76680;59.304;18.294;2024-03-08T12:08:05;102459.75;;;5.59;52.34
86078;BME280;76680;59.304;18.294;2024-03-08T12:10:38;102447.78;;;5.61;55.20
86078;BME280;76680;59.304;18.294;2024-03-08T12:13:06;102461.59;;;5.63;52.33
86078;BME280;76680;59.304;18.294;2024-03-08T12:15:39;102458.22;;;5.66;51.97
86078;BME280;76680;59.304;18.294;2024-03-08T12:18:06;102460.03;;;5.68;50.84
86078;BME280;76680;59.304;18.294;2024-03-08T12:20:36;102455.72;;;5.69;51.01
86078;BME280;76680;59.304;18.294;2024-03-08T12:23:04;102454.94;;;5.71;51.22
86078;BME280;76680;59.304;18.294;2024-03-08T12:25:32;102455.03;;;5.73;52.64
86078;BME280;76680;59.304;18.294;2024-03-08T12:28:09;102461.09;;;5.75;54.02
86078;BME280;76680;59.304;18.294;2024-03-08T12:30:46;102457.69;;;5.76;52.24
86078;BME280;76680;59.304;18.294;2024-03-08T12:33:13;102449.97;;;5.78;50.99
86078;BME280;76680;59.304;18.294;2024-03-08T12:35:40;102457.75;;;5.79;50.82
86078;BME280;76680;59.304;18.294;2024-03-08T12:38:08;102453.53;;;5.81;50.50
86078;BME280;76680;59.304;18.294;2024-03-08T12:40:35;102455.28;;;5.82;51.10
86078;BME280;76680;59.304;18.294;2024-03-08T12:43:06;102452.69;;;5.82;50.18
86078;BME280;76680;59.304;18.294;2024-03-08T12:45:34;102459.69;;;5.86;50.95
86078;BME280;76680;59.304;18.294;2024-03-08T12:48:01;102448.53;;;5.87;50.70
86078;BME280;76680;59.304;18.294;2024-03-08T12:50:28;102455.47;;;5.88;50.80
86078;BME280;76680;59.304;18.294;2024-03-08T12:52:56;102450.34;;;5.90;51.40